Time;durP1;ratioP1;P1;durP2;ratioP2;P2;SDS_P1;SDS_P2;PMS_P1;PMS_P2;Temp;Humidity;BMP_temperature;BMP_pressure;BME280_temperature;BME280_humidity;BME280_pressure;Samples;Min_cycle;Max_cycle;Signal;HPM_P1;HPM_P2
2021/06/07 00:01:47;;;;;;;53.60;32.00;;;16.30;99.90;;;;;;5078001;28;23866;-48
2021/06/07 00:04:13;;;;;;;62.20;33.30;;;16.40;99.90;;;;;;5081645;28;20204;-50
2021/06/07 00:06:40;;;;;;;64.47;32.73;;;16.30;99.90;;;;;;5080142;28;20197;-49
2021/06/07 00:09:10;;;;;;;49.53;32.73;;;16.30;99.90;;;;;;5082995;28;20229;-49
2021/06/07 00:11:37;;;;;;;62.90;33.40;;;16.30;99.90;;;;;;5099910;28;20243;-46
2021/06/07 00:14:04;;;;;;;56.80;32.67;;;16.20;99.90;;;;;;5085839;28;20200;-48
2021/06/07 00:16:31;;;;;;;53.20;32.87;;;16.30;99.90;;;;;;5072940;28;20198;-48
2021/06/07 00:18:59;;;;;;;57.07;32.80;;;16.20;99.90;;;;;;5064604;28;20229;-46
2021/06/07 00:21:27;;;;;;;48.43;33.17;;;16.20;99.90;;;;;;5079516;28;20190;-50
2021/06/07 00:23:55;;;;;;;51.93;32.93;;;16.10;99.90;;;;;;5078315;28;20198;-47
2021/06/07 00:26:23;;;;;;;54.90;34.57;;;16.20;99.90;;;;;;5081057;28;20201;-48
2021/06/07 00:28:49;;;;;;;57.50;35.47;;;16.10;99.90;;;;;;5081137;28;20210;-53
2021/06/07 00:31:16;;;;;;;56.13;34.50;;;16.10;99.90;;;;;;5080093;28;20550;-45
2021/06/07 00:33:42;;;;;;;52.73;33.40;;;16.20;99.90;;;;;;5059454;28;20858;-48
2021/06/07 00:36:09;;;;;;;41.77;30.37;;;16.20;99.90;;;;;;5082947;28;20198;-50
2021/06/07 00:38:36;;;;;;;50.97;33.43;;;16.10;99.90;;;;;;5078530;28;20214;-47
2021/06/07 00:41:05;;;;;;;53.00;34.20;;;16.10;99.90;;;;;;5078342;28;20206;-46
2021/06/07 00:43:33;;;;;;;53.40;33.83;;;16.00;99.90;;;;;;5078757;28;20999;-48
2021/06/07 00:45:59;;;;;;;46.17;32.40;;;16.00;99.90;;;;;;5083014;28;20685;-46
2021/06/07 00:48:26;;;;;;;52.87;32.83;;;16.00;99.90;;;;;;5060722;28;20271;-48
2021/06/07 00:50:55;;;;;;;50.77;32.37;;;16.00;99.90;;;;;;5079969;28;20228;-47
2021/06/07 00:53:21;;;;;;;58.93;35.10;;;16.00;99.90;;;;;;5080287;28;20201;-52
2021/06/07 00:55:51;;;;;;;61.53;35.13;;;15.90;99.90;;;;;;5079134;28;20198;-50
2021/06/07 00:58:20;;;;;;;53.37;33.20;;;15.90;99.90;;;;;;5084471;28;20307;-48
2021/06/07 01:00:47;;;;;;;53.80;34.10;;;15.90;99.90;;;;;;5084045;28;20346;-48
2021/06/07 01:03:15;;;;;;;59.03;35.57;;;15.90;99.90;;;;;;5078407;28;20198;-50
2021/06/07 01:05:42;;;;;;;57.97;35.80;;;15.90;99.90;;;;;;5069458;28;20202;-46
2021/06/07 01:08:08;;;;;;;55.80;35.20;;;15.90;99.90;;;;;;5085485;28;20535;-46
2021/06/07 01:10:35;;;;;;;59.47;35.97;;;15.90;99.90;;;;;;5077089;28;20239;-49
2021/06/07 01:13:01;;;;;;;57.57;35.13;;;15.90;99.90;;;;;;5086279;28;20190;-48
2021/06/07 01:15:28;;;;;;;61.27;36.97;;;15.90;99.90;;;;;;5082885;28;20279;-47
2021/06/07 01:17:55;;;;;;;62.50;36.60;;;15.90;99.90;;;;;;5077747;28;20194;-45
2021/06/07 01:20:23;;;;;;;60.73;35.93;;;15.80;99.90;;;;;;5067488;28;20202;-50
2021/06/07 01:22:52;;;;;;;59.23;37.50;;;15.80;99.90;;;;;;5083463;28;20273;-47
2021/06/07 01:25:21;;;;;;;62.53;37.57;;;15.80;99.90;;;;;;5082160;28;20186;-52
2021/06/07 01:27:48;;;;;;;56.40;35.27;;;15.80;99.90;;;;;;5080579;28;20202;-47
2021/06/07 01:30:17;;;;;;;61.97;37.90;;;15.80;99.90;;;;;;5084068;28;20713;-51
2021/06/07 01:32:44;;;;;;;63.57;37.60;;;15.70;99.90;;;;;;5074973;28;20471;-50
2021/06/07 01:35:12;;;;;;;65.57;37.77;;;15.80;99.90;;;;;;5075930;28;20209;-47
2021/06/07 01:37:42;;;;;;;68.67;38.30;;;15.80;99.90;;;;;;5070634;28;20194;-50
2021/06/07 01:40:15;;;;;;;64.80;38.07;;;15.80;99.90;;;;;;5084785;28;20218;-46
2021/06/07 01:42:41;;;;;;;65.83;38.97;;;15.80;99.90;;;;;;5085674;28;20249;-52
2021/06/07 01:45:09;;;;;;;63.63;38.83;;;15.80;99.90;;;;;;5085637;28;20198;-48
2021/06/07 01:47:35;;;;;;;59.13;37.90;;;15.80;99.90;;;;;;5081615;28;20186;-48
2021/06/07 01:50:02;;;;;;;63.57;37.60;;;15.80;99.90;;;;;;5076687;28;20237;-47
2021/06/07 01:52:28;;;;;;;66.60;38.07;;;15.80;99.90;;;;;;5068383;28;20202;-45
2021/06/07 01:54:54;;;;;;;67.43;39.43;;;15.70;99.90;;;;;;5083786;28;20202;-46
2021/06/07 01:57:21;;;;;;;65.13;37.43;;;15.70;99.90;;;;;;5078717;28;20209;-47
2021/06/07 01:59:48;;;;;;;73.27;40.50;;;15.80;99.90;;;;;;5083266;28;20206;-50
2021/06/07 02:02:14;;;;;;;77.20;40.50;;;15.80;99.90;;;;;;5084500;28;20190;-46
2021/06/07 02:04:40;;;;;;;75.07;40.37;;;15.80;99.90;;;;;;5075055;28;20190;-52
2021/06/07 02:07:06;;;;;;;72.20;39.47;;;15.80;99.90;;;;;;5061376;28;20213;-49
2021/06/07 02:09:32;;;;;;;75.73;39.73;;;15.80;99.90;;;;;;5080056;28;20209;-48
2021/06/07 02:11:58;;;;;;;70.43;41.23;;;15.80;99.90;;;;;;5080421;28;20205;-48
2021/06/07 02:14:26;;;;;;;70.87;39.37;;;15.80;99.90;;;;;;5081745;28;20186;-51
2021/06/07 02:16:52;;;;;;;68.87;39.90;;;15.70;99.90;;;;;;5083119;28;20206;-50
2021/06/07 02:19:18;;;;;;;72.73;40.77;;;15.70;99.90;;;;;;5079758;28;20217;-49
2021/06/07 02:21:44;;;;;;;73.87;39.80;;;15.70;99.90;;;;;;5094694;28;20208;-46
2021/06/07 02:24:11;;;;;;;75.23;40.53;;;15.60;99.90;;;;;;5070254;28;20214;-49
2021/06/07 02:26:38;;;;;;;71.70;39.60;;;15.60;99.90;;;;;;5081154;28;20194;-47
2021/06/07 02:29:08;;;;;;;73.73;39.57;;;15.60;99.90;;;;;;5079406;28;20682;-48
2021/06/07 02:31:37;;;;;;;70.73;39.60;;;15.60;99.90;;;;;;5076123;28;20190;-48
2021/06/07 02:34:07;;;;;;;69.10;39.50;;;15.60;99.90;;;;;;5082254;28;20652;-46
2021/06/07 02:36:36;;;;;;;73.50;39.70;;;15.60;99.90;;;;;;5074011;28;20193;-51
2021/06/07 02:39:05;;;;;;;69.63;39.93;;;15.60;99.90;;;;;;5070161;28;20210;-46
2021/06/07 02:41:31;;;;;;;68.03;39.73;;;15.60;99.90;;;;;;5080592;28;20186;-46
2021/06/07 02:43:57;;;;;;;76.27;40.50;;;15.60;99.90;;;;;;5079884;28;20186;-49
2021/06/07 02:46:23;;;;;;;72.43;40.37;;;15.60;99.90;;;;;;5081224;28;20206;-47
2021/06/07 02:48:51;;;;;;;82.53;40.40;;;15.60;99.90;;;;;;5080949;28;20237;-47
2021/06/07 02:51:18;;;;;;;70.13;39.30;;;15.60;99.90;;;;;;5080625;28;20198;-54
2021/06/07 02:53:46;;;;;;;72.47;39.10;;;15.60;99.90;;;;;;5063888;28;21304;-48
2021/06/07 02:56:12;;;;;;;77.77;39.90;;;15.60;99.90;;;;;;5083300;28;20716;-46
2021/06/07 02:58:38;;;;;;;77.40;41.40;;;15.60;99.90;;;;;;5080739;28;20206;-48
2021/06/07 03:01:07;;;;;;;75.17;39.03;;;15.60;99.90;;;;;;5079589;28;20202;-47
2021/06/07 03:03:33;;;;;;;72.60;38.97;;;15.60;99.90;;;;;;5079594;28;21253;-47
2021/06/07 03:06:01;;;;;;;76.70;40.97;;;15.60;99.90;;;;;;5084065;28;20200;-46
2021/06/07 03:08:29;;;;;;;70.67;39.40;;;15.60;99.90;;;;;;5073078;28;20718;-51
2021/06/07 03:10:58;;;;;;;77.13;40.23;;;15.60;99.90;;;;;;5069553;28;20206;-48
2021/06/07 03:13:25;;;;;;;74.37;40.40;;;15.70;99.90;;;;;;5080628;28;20198;-50
2021/06/07 03:15:53;;;;;;;79.73;39.97;;;15.70;99.90;;;;;;5078759;28;20693;-49
2021/06/07 03:18:19;;;;;;;66.43;38.07;;;15.70;99.90;;;;;;5077446;28;20222;-48
2021/06/07 03:20:46;;;;;;;75.60;39.97;;;15.70;99.90;;;;;;5066971;28;20183;-50
2021/06/07 03:23:16;;;;;;;70.37;38.67;;;15.70;99.90;;;;;;5077101;28;20213;-48
2021/06/07 03:25:44;;;;;;;71.30;39.40;;;15.70;99.90;;;;;;5066918;28;20206;-47
2021/06/07 03:28:12;;;;;;;68.77;39.70;;;15.70;99.90;;;;;;5073386;28;20233;-47
2021/06/07 03:30:38;;;;;;;68.70;37.90;;;15.70;99.90;;;;;;5077579;28;20228;-50
2021/06/07 03:33:05;;;;;;;70.37;36.90;;;15.70;99.90;;;;;;5084916;28;20239;-50
2021/06/07 03:35:32;;;;;;;71.20;38.27;;;15.70;99.90;;;;;;5078651;28;20186;-49
2021/06/07 03:37:58;;;;;;;81.17;40.83;;;15.80;99.90;;;;;;5083702;28;20565;-47
2021/06/07 03:40:27;;;;;;;88.07;42.67;;;15.80;99.90;;;;;;5068841;28;20203;-50
2021/06/07 03:42:54;;;;;;;84.83;41.17;;;15.80;99.90;;;;;;5082040;28;20209;-46
2021/06/07 03:45:21;;;;;;;83.83;41.10;;;15.70;99.90;;;;;;5081158;28;20673;-50
2021/06/07 03:47:48;;;;;;;76.47;37.80;;;15.80;99.90;;;;;;5077024;28;20198;-49
2021/06/07 03:50:17;;;;;;;73.13;39.67;;;15.70;99.90;;;;;;5081382;28;20752;-48
2021/06/07 03:52:44;;;;;;;72.60;39.50;;;15.70;99.90;;;;;;5081218;28;20193;-49
2021/06/07 03:55:12;;;;;;;76.60;40.07;;;15.70;99.90;;;;;;5083958;28;20252;-49
2021/06/07 03:57:40;;;;;;;76.20;41.70;;;15.70;99.90;;;;;;5070286;28;20194;-48
2021/06/07 04:00:10;;;;;;;72.90;39.80;;;15.70;99.90;;;;;;5081914;28;20209;-47
2021/06/07 04:02:40;;;;;;;73.20;40.50;;;15.70;99.90;;;;;;5074334;28;20209;-50
2021/06/07 04:05:08;;;;;;;71.70;38.57;;;15.70;99.90;;;;;;5083401;28;20547;-46
2021/06/07 04:07:34;;;;;;;70.33;37.93;;;15.70;99.90;;;;;;5073873;28;20889;-50
2021/06/07 04:10:01;;;;;;;71.13;37.83;;;15.70;99.90;;;;;;5077394;28;20228;-50
2021/06/07 04:12:27;;;;;;;76.17;40.10;;;15.70;99.90;;;;;;5059051;28;20202;-50
2021/06/07 04:14:54;;;;;;;64.13;38.07;;;15.80;99.90;;;;;;5081823;28;20206;-48
2021/06/07 04:17:21;;;;;;;80.23;41.90;;;15.80;99.90;;;;;;5086099;28;20204;-47
2021/06/07 04:19:47;;;;;;;78.80;41.40;;;15.80;99.90;;;;;;5081511;28;20223;-47
2021/06/07 04:22:13;;;;;;;93.07;42.17;;;15.70;99.90;;;;;;5079338;28;20749;-47
2021/06/07 04:24:39;;;;;;;89.23;42.63;;;15.70;99.90;;;;;;5073952;28;20217;-49
2021/06/07 04:27:09;;;;;;;90.70;41.07;;;15.70;99.90;;;;;;5076535;28;20212;-48
2021/06/07 04:29:35;;;;;;;94.77;41.47;;;15.70;99.90;;;;;;5066242;28;20217;-48
2021/06/07 04:32:03;;;;;;;78.73;40.00;;;15.80;99.90;;;;;;5086658;28;20198;-49
2021/06/07 04:34:29;;;;;;;100.50;44.83;;;15.70;99.90;;;;;;5078067;28;20201;-48
2021/06/07 04:36:55;;;;;;;92.03;41.53;;;15.70;99.90;;;;;;5086520;28;20194;-48
2021/06/07 04:39:22;;;;;;;71.23;40.13;;;15.70;99.90;;;;;;5078616;28;20229;-47
2021/06/07 04:41:48;;;;;;;76.60;38.83;;;15.80;99.90;;;;;;5079160;28;20207;-41
2021/06/07 04:44:14;;;;;;;74.83;38.53;;;15.80;99.90;;;;;;5081251;28;20186;-47
2021/06/07 04:46:40;;;;;;;66.33;38.70;;;15.80;99.90;;;;;;5074869;28;20202;-43
2021/06/07 04:49:07;;;;;;;74.40;38.13;;;15.80;99.90;;;;;;5078752;28;20576;-50
2021/06/07 04:51:33;;;;;;;75.73;39.13;;;15.80;99.90;;;;;;5086208;28;20194;-48
2021/06/07 04:53:59;;;;;;;71.03;37.30;;;15.80;99.90;;;;;;5084129;28;20194;-46
2021/06/07 04:56:26;;;;;;;68.37;35.30;;;15.80;99.90;;;;;;5077153;28;20190;-45
2021/06/07 04:58:52;;;;;;;66.70;36.07;;;15.80;99.90;;;;;;5085229;28;20770;-46
2021/06/07 05:01:18;;;;;;;66.80;35.67;;;15.80;99.90;;;;;;5072677;28;20251;-47
2021/06/07 05:03:44;;;;;;;61.80;34.93;;;15.80;99.90;;;;;;5087769;28;20511;-47
2021/06/07 05:06:12;;;;;;;70.90;36.63;;;15.80;99.90;;;;;;5083313;28;20198;-45
2021/06/07 05:08:38;;;;;;;78.10;36.93;;;15.90;99.90;;;;;;5082594;28;20209;-45
2021/06/07 05:11:04;;;;;;;63.10;36.67;;;15.90;99.90;;;;;;5080294;28;20253;-48
2021/06/07 05:13:31;;;;;;;66.33;36.67;;;16.00;99.90;;;;;;5068003;28;21169;-48
2021/06/07 05:15:57;;;;;;;67.53;35.90;;;16.00;99.90;;;;;;5084879;28;20213;-47
2021/06/07 05:18:24;;;;;;;61.87;34.20;;;16.10;99.90;;;;;;5062902;28;20209;-45
2021/06/07 05:20:51;;;;;;;61.30;35.10;;;16.10;99.90;;;;;;5077538;28;20210;-45
2021/06/07 05:23:19;;;;;;;59.23;35.40;;;16.10;99.90;;;;;;5080070;28;20201;-48
2021/06/07 05:25:46;;;;;;;59.50;33.80;;;16.00;99.90;;;;;;5080325;28;20201;-48
2021/06/07 05:28:14;;;;;;;57.23;33.20;;;16.00;99.90;;;;;;5074329;28;20543;-53
2021/06/07 05:30:42;;;;;;;58.60;34.00;;;16.10;99.90;;;;;;5084567;28;20218;-46
2021/06/07 05:33:09;;;;;;;57.53;33.87;;;16.10;99.90;;;;;;5071507;28;20586;-50
2021/06/07 05:35:37;;;;;;;62.17;36.03;;;16.00;99.90;;;;;;5076758;28;20227;-48
2021/06/07 05:38:04;;;;;;;61.80;34.93;;;16.00;99.90;;;;;;5084159;28;20202;-49
2021/06/07 05:40:32;;;;;;;64.87;35.00;;;16.00;99.90;;;;;;5076509;28;20207;-50
2021/06/07 05:42:59;;;;;;;61.43;35.20;;;16.00;99.90;;;;;;5085499;28;20194;-48
2021/06/07 05:45:27;;;;;;;69.03;37.20;;;16.00;99.90;;;;;;5074160;28;20198;-47
2021/06/07 05:47:56;;;;;;;64.07;36.50;;;16.00;99.90;;;;;;5084411;28;20209;-46
2021/06/07 05:50:23;;;;;;;66.53;37.63;;;16.00;99.90;;;;;;5059729;28;20241;-49
2021/06/07 05:52:50;;;;;;;76.47;44.30;;;16.00;99.90;;;;;;5086795;28;20198;-49
2021/06/07 05:55:18;;;;;;;68.30;36.23;;;16.10;99.90;;;;;;5084150;28;20198;-51
2021/06/07 05:57:47;;;;;;;69.93;38.77;;;16.20;99.90;;;;;;5083157;28;20209;-50
2021/06/07 06:00:15;;;;;;;61.43;36.20;;;16.20;99.90;;;;;;5076648;28;20251;-47
2021/06/07 06:02:41;;;;;;;69.37;37.43;;;16.20;99.90;;;;;;5077670;28;20684;-48
2021/06/07 06:05:08;;;;;;;69.50;38.10;;;16.20;99.90;;;;;;5063519;28;20312;-45
2021/06/07 06:07:35;;;;;;;69.13;37.80;;;16.20;99.90;;;;;;5076321;28;20230;-58
2021/06/07 06:10:01;;;;;;;73.53;37.40;;;16.20;99.90;;;;;;5079629;28;20915;-47
2021/06/07 06:12:27;;;;;;;67.30;36.00;;;16.30;99.90;;;;;;5075446;28;20251;-47
2021/06/07 06:14:55;;;;;;;58.03;36.30;;;16.30;99.90;;;;;;5080835;28;20194;-48
2021/06/07 06:17:21;;;;;;;61.90;35.03;;;16.20;99.90;;;;;;5074361;28;20205;-47
2021/06/07 06:19:47;;;;;;;66.47;35.17;;;16.20;99.90;;;;;;5065030;28;20213;-47
2021/06/07 06:22:13;;;;;;;61.37;35.17;;;16.20;99.90;;;;;;5075907;28;20259;-51
2021/06/07 06:24:40;;;;;;;62.87;34.73;;;16.20;99.90;;;;;;5075158;28;20201;-48
2021/06/07 06:27:08;;;;;;;64.13;36.87;;;16.30;99.90;;;;;;5081751;28;20226;-51
2021/06/07 06:29:35;;;;;;;63.73;37.33;;;16.30;99.90;;;;;;5072237;28;20210;-45
2021/06/07 06:32:03;;;;;;;61.57;37.07;;;16.30;99.90;;;;;;5070528;28;20205;-49
2021/06/07 06:34:30;;;;;;;66.60;37.60;;;16.30;99.90;;;;;;5069454;28;20861;-48
2021/06/07 06:36:56;;;;;;;61.13;36.53;;;16.30;99.90;;;;;;5066768;28;20205;-47
2021/06/07 06:39:22;;;;;;;60.27;36.00;;;16.30;99.90;;;;;;5070171;28;20217;-51
2021/06/07 06:41:48;;;;;;;68.40;38.10;;;16.30;99.90;;;;;;5081946;28;20803;-48
2021/06/07 06:44:15;;;;;;;61.33;37.30;;;16.40;99.90;;;;;;5077139;28;20198;-55
2021/06/07 06:46:41;;;;;;;58.47;35.90;;;16.40;99.90;;;;;;5086811;28;20208;-45
2021/06/07 06:49:08;;;;;;;67.13;37.00;;;16.50;99.90;;;;;;5066481;28;20225;-48
2021/06/07 06:51:34;;;;;;;65.20;37.33;;;16.50;99.90;;;;;;5069126;28;20230;-48
2021/06/07 06:54:01;;;;;;;66.10;38.10;;;16.50;99.90;;;;;;5068478;28;20691;-49
2021/06/07 06:56:27;;;;;;;61.97;36.87;;;16.50;99.90;;;;;;5077324;28;20205;-48
2021/06/07 06:58:53;;;;;;;66.83;39.83;;;16.60;99.90;;;;;;5080520;28;20221;-51
2021/06/07 07:01:19;;;;;;;64.40;36.47;;;16.60;99.90;;;;;;5078514;28;20194;-49
2021/06/07 07:03:47;;;;;;;57.80;35.80;;;16.60;99.90;;;;;;5076940;28;20213;-48
2021/06/07 07:06:14;;;;;;;60.63;36.90;;;16.70;99.90;;;;;;5062631;28;21003;-47
2021/06/07 07:08:40;;;;;;;62.57;38.67;;;16.70;99.90;;;;;;5065000;28;20229;-50
2021/06/07 07:11:07;;;;;;;59.20;35.40;;;16.70;99.90;;;;;;5070730;28;20226;-46
2021/06/07 07:13:33;;;;;;;61.93;37.90;;;16.70;99.90;;;;;;5078288;28;20273;-46
2021/06/07 07:15:59;;;;;;;60.73;35.57;;;16.70;99.90;;;;;;5074331;28;20194;-47
2021/06/07 07:18:25;;;;;;;54.53;35.50;;;16.70;99.90;;;;;;5080937;28;20218;-49
2021/06/07 07:20:51;;;;;;;60.87;37.90;;;16.60;99.90;;;;;;5067885;28;20282;-46
2021/06/07 07:23:19;;;;;;;60.07;35.27;;;16.60;99.90;;;;;;5060235;28;20206;-51
2021/06/07 07:25:47;;;;;;;52.17;34.07;;;16.60;99.90;;;;;;5061417;28;20206;-47
2021/06/07 07:28:14;;;;;;;60.93;36.37;;;16.50;99.90;;;;;;5063313;28;20206;-53
2021/06/07 07:30:40;;;;;;;57.73;35.27;;;16.60;99.90;;;;;;5071250;28;20218;-50
2021/06/07 07:33:07;;;;;;;62.77;36.87;;;16.60;99.90;;;;;;5076947;28;20201;-54
2021/06/07 07:35:34;;;;;;;58.33;36.23;;;16.70;99.90;;;;;;5073873;28;20194;-51
2021/06/07 07:38:01;;;;;;;57.40;37.67;;;16.70;99.90;;;;;;5064763;28;20205;-50
2021/06/07 07:40:28;;;;;;;62.27;38.17;;;16.70;99.90;;;;;;5069664;28;20190;-53
2021/06/07 07:42:56;;;;;;;61.37;38.70;;;16.80;99.90;;;;;;5077793;28;20204;-48
2021/06/07 07:45:26;;;;;;;61.33;38.97;;;16.80;99.90;;;;;;5070345;28;20213;-49
2021/06/07 07:47:53;;;;;;;58.73;37.40;;;16.80;99.90;;;;;;5071472;28;20214;-47
2021/06/07 07:50:20;;;;;;;57.63;36.07;;;16.90;99.90;;;;;;5064890;28;20273;-51
2021/06/07 07:52:46;;;;;;;57.17;38.10;;;16.90;99.90;;;;;;5064761;28;20246;-52
2021/06/07 07:55:14;;;;;;;50.90;34.60;;;17.00;99.90;;;;;;5070101;28;20232;-46
2021/06/07 07:57:42;;;;;;;58.90;37.60;;;17.10;99.90;;;;;;5077708;28;20212;-48
2021/06/07 08:00:11;;;;;;;57.80;38.30;;;17.10;99.90;;;;;;5072511;28;20716;-53
2021/06/07 08:02:42;;;;;;;58.93;37.53;;;17.00;99.90;;;;;;5070693;28;20217;-49
2021/06/07 08:05:09;;;;;;;54.93;36.27;;;17.10;99.90;;;;;;5075298;28;20198;-55
2021/06/07 08:07:36;;;;;;;59.23;38.43;;;17.10;99.90;;;;;;5088434;28;20249;-49
2021/06/07 08:10:02;;;;;;;59.37;37.47;;;17.20;99.90;;;;;;5072868;28;20218;-52
2021/06/07 08:12:29;;;;;;;58.83;36.93;;;17.40;99.90;;;;;;5072266;28;20986;-47
2021/06/07 08:14:57;;;;;;;55.20;35.33;;;17.50;99.90;;;;;;5082594;28;20186;-47
2021/06/07 08:17:23;;;;;;;54.03;33.93;;;17.70;99.90;;;;;;5067931;28;20216;-48
2021/06/07 08:19:49;;;;;;;49.00;34.67;;;17.80;99.90;;;;;;5084623;28;20722;-47
2021/06/07 08:22:16;;;;;;;44.83;32.90;;;17.90;99.90;;;;;;5070692;28;20277;-49
2021/06/07 08:24:43;;;;;;;49.37;34.47;;;17.90;99.90;;;;;;5072570;28;20216;-48
2021/06/07 08:27:09;;;;;;;51.50;34.13;;;18.00;99.90;;;;;;5076857;28;20221;-51
2021/06/07 08:29:35;;;;;;;50.73;32.67;;;18.10;99.90;;;;;;5075031;28;20213;-49
2021/06/07 08:32:03;;;;;;;50.67;33.43;;;18.10;99.90;;;;;;5074487;28;20702;-51
2021/06/07 08:34:29;;;;;;;50.07;35.27;;;18.00;99.90;;;;;;5079005;28;20224;-51
2021/06/07 08:36:56;;;;;;;52.40;34.40;;;18.00;99.90;;;;;;5080707;28;20697;-48
2021/06/07 08:39:22;;;;;;;54.90;34.20;;;18.00;99.90;;;;;;5067041;28;20217;-48
2021/06/07 08:41:49;;;;;;;49.13;33.77;;;18.00;99.90;;;;;;5068256;28;20206;-50
2021/06/07 08:44:15;;;;;;;49.37;33.93;;;18.10;99.90;;;;;;5071358;28;20276;-53
2021/06/07 08:46:41;;;;;;;55.17;33.97;;;18.20;99.90;;;;;;5077561;28;20209;-48
2021/06/07 08:49:09;;;;;;;50.83;34.83;;;18.20;99.90;;;;;;5078733;28;20222;-51
2021/06/07 08:51:35;;;;;;;45.50;33.17;;;18.30;99.90;;;;;;5077218;28;20967;-51
2021/06/07 08:54:01;;;;;;;45.13;32.17;;;18.30;99.90;;;;;;5072316;28;20703;-51
2021/06/07 08:56:27;;;;;;;51.20;35.30;;;18.40;99.90;;;;;;5080959;28;20205;-50
2021/06/07 08:58:53;;;;;;;50.03;35.67;;;18.40;99.90;;;;;;5075983;28;20625;-48
2021/06/07 09:01:19;;;;;;;49.53;33.77;;;18.40;99.90;;;;;;5072566;28;20198;-51
2021/06/07 09:03:45;;;;;;;51.47;34.97;;;18.50;99.90;;;;;;5081425;28;20224;-51
2021/06/07 09:06:16;;;;;;;51.27;35.37;;;18.50;99.90;;;;;;5073670;28;20210;-53
2021/06/07 09:08:42;;;;;;;52.83;33.77;;;18.60;99.90;;;;;;5066451;28;24396;-48
2021/06/07 09:11:11;;;;;;;43.53;32.60;;;18.70;99.90;;;;;;5073651;28;20321;-48
2021/06/07 09:13:38;;;;;;;44.97;32.80;;;18.80;99.90;;;;;;5071701;28;20206;-49
2021/06/07 09:16:05;;;;;;;46.60;33.30;;;18.90;99.90;;;;;;5077641;28;20202;-48
2021/06/07 09:18:34;;;;;;;46.73;32.60;;;18.80;99.90;;;;;;5073786;28;20256;-48
2021/06/07 09:21:04;;;;;;;44.37;32.00;;;18.70;99.90;;;;;;5079023;28;20301;-50
2021/06/07 09:23:43;;;;;;;45.83;32.93;;;18.70;99.90;;;;;;5079444;28;20178;-49
2021/06/07 09:26:25;;;;;;;43.77;31.37;;;18.70;99.90;;;;;;5069131;28;20205;-52
2021/06/07 09:28:54;;;;;;;47.23;31.97;;;18.80;99.90;;;;;;5070294;28;20218;-48
2021/06/07 09:31:27;;;;;;;45.13;32.30;;;18.80;99.90;;;;;;5076847;28;20285;-52
2021/06/07 09:33:54;;;;;;;44.43;30.80;;;18.90;99.90;;;;;;5080083;28;20202;-46
2021/06/07 09:36:24;;;;;;;42.60;29.97;;;18.80;99.90;;;;;;5068924;28;20186;-56
2021/06/07 09:38:58;;;;;;;46.63;31.70;;;18.80;99.90;;;;;;5078575;28;20225;-48
2021/06/07 09:41:26;;;;;;;41.20;30.30;;;18.80;99.90;;;;;;5062607;28;20678;-55
2021/06/07 09:43:56;;;;;;;42.50;30.50;;;18.80;99.90;;;;;;5079460;28;20197;-49
2021/06/07 09:46:25;;;;;;;40.33;30.07;;;18.90;99.90;;;;;;5070645;28;20567;-53
2021/06/07 09:49:04;;;;;;;38.27;29.50;;;18.90;99.90;;;;;;5073865;28;20581;-54
2021/06/07 09:51:30;;;;;;;41.33;29.37;;;18.90;99.90;;;;;;5075866;28;20725;-47
2021/06/07 09:53:58;;;;;;;37.00;29.27;;;19.00;99.90;;;;;;5068175;28;20194;-50
2021/06/07 09:56:25;;;;;;;40.47;29.37;;;19.00;99.90;;;;;;5069452;28;20251;-51
2021/06/07 09:58:52;;;;;;;41.43;29.33;;;19.00;99.90;;;;;;5074239;28;20207;-48
2021/06/07 10:01:20;;;;;;;36.40;27.40;;;19.10;99.90;;;;;;5071544;28;20202;-49
2021/06/07 10:03:51;;;;;;;42.50;30.20;;;19.10;99.90;;;;;;5076346;28;20198;-46
2021/06/07 10:06:23;;;;;;;39.00;27.40;;;19.10;99.90;;;;;;5081728;28;20252;-48
2021/06/07 10:08:52;;;;;;;37.37;28.60;;;19.10;99.90;;;;;;5075171;28;20233;-49
2021/06/07 10:11:24;;;;;;;38.33;28.33;;;19.20;99.90;;;;;;5068493;28;20214;-46
2021/06/07 10:14:03;;;;;;;35.63;27.30;;;19.10;99.90;;;;;;5070241;28;20264;-51
2021/06/07 10:16:29;;;;;;;35.03;26.87;;;19.20;99.90;;;;;;5075992;28;20201;-49
2021/06/07 10:18:56;;;;;;;37.03;28.40;;;19.20;99.90;;;;;;5074283;28;20314;-48
2021/06/07 10:21:22;;;;;;;36.07;27.40;;;19.30;99.90;;;;;;5081215;28;20198;-51
2021/06/07 10:23:49;;;;;;;37.73;26.73;;;19.40;99.90;;;;;;5069113;28;20206;-49
2021/06/07 10:26:15;;;;;;;37.43;27.57;;;19.60;99.90;;;;;;5071093;28;20252;-47
2021/06/07 10:28:44;;;;;;;36.07;27.07;;;19.70;99.90;;;;;;5079977;28;20198;-49
2021/06/07 10:31:14;;;;;;;39.43;29.57;;;20.00;99.90;;;;;;5079678;28;20699;-47
2021/06/07 10:33:42;;;;;;;37.67;28.87;;;20.10;99.90;;;;;;5071810;28;20221;-47
2021/06/07 10:36:46;;;;;;;38.53;28.20;;;20.20;99.90;;;;;;5083323;28;20277;-49
2021/06/07 10:39:24;;;;;;;39.77;27.63;;;20.30;99.90;;;;;;5074452;28;20218;-49
2021/06/07 10:42:17;;;;;;;39.23;27.77;;;20.30;99.90;;;;;;5061295;28;20240;-47
2021/06/07 10:44:47;;;;;;;37.73;27.20;;;20.30;99.90;;;;;;5078709;28;20250;-49
2021/06/07 10:47:15;;;;;;;34.97;25.90;;;20.30;99.90;;;;;;5072091;28;20530;-48
2021/06/07 10:49:44;;;;;;;33.30;24.90;;;20.40;99.90;;;;;;5073670;28;20214;-50
2021/06/07 10:52:14;;;;;;;37.20;27.83;;;20.50;99.90;;;;;;5078698;28;20198;-48
2021/06/07 10:54:43;;;;;;;36.33;27.00;;;20.60;99.90;;;;;;5073079;28;20216;-51
2021/06/07 10:57:34;;;;;;;33.23;24.60;;;20.60;99.90;;;;;;5076020;28;20255;-51
2021/06/07 11:00:10;;;;;;;32.53;25.03;;;20.80;99.90;;;;;;5079630;28;20263;-47
2021/06/07 11:02:38;;;;;;;31.87;25.57;;;20.80;99.90;;;;;;5065102;28;20189;-52
2021/06/07 11:05:11;;;;;;;28.98;23.45;;;20.80;99.90;;;;;;5076970;28;20247;-49
2021/06/07 11:07:37;;;;;;;29.50;22.07;;;20.90;99.90;;;;;;5079656;28;20190;-50
2021/06/07 11:10:26;;;;;;;26.75;19.65;;;21.00;99.90;;;;;;5075461;28;20210;-47
2021/06/07 11:12:55;;;;;;;29.50;22.33;;;21.10;99.90;;;;;;5072658;28;20209;-47
2021/06/07 11:15:24;;;;;;;29.60;22.15;;;21.00;99.90;;;;;;5064422;28;20209;-50
2021/06/07 11:17:52;;;;;;;25.48;20.30;;;21.00;99.90;;;;;;5068449;28;20210;-52
2021/06/07 11:20:33;;;;;;;26.92;20.40;;;21.10;99.90;;;;;;5080478;28;20709;-50
2021/06/07 11:23:10;;;;;;;28.73;23.13;;;21.20;99.90;;;;;;5076776;28;20305;-48
2021/06/07 11:25:53;;;;;;;30.35;21.35;;;21.10;99.90;;;;;;5074369;28;20571;-51
2021/06/07 11:28:42;;;;;;;21.75;19.30;;;21.30;99.90;;;;;;5069181;28;20237;-51
2021/06/07 11:31:52;;;;;;;24.48;19.75;;;21.40;99.90;;;;;;5066923;28;20206;-51
2021/06/07 11:34:47;;;;;;;26.52;21.42;;;21.50;99.90;;;;;;5075729;28;20921;-48
2021/06/07 11:37:16;;;;;;;28.38;22.35;;;21.50;99.90;;;;;;5070606;28;20234;-46
2021/06/07 11:39:54;;;;;;;25.65;20.20;;;21.70;99.90;;;;;;5074309;28;20274;-52
2021/06/07 11:42:27;;;;;;;21.60;18.42;;;21.90;99.90;;;;;;5074441;28;20202;-48
2021/06/07 11:44:57;;;;;;;26.73;20.13;;;21.80;99.90;;;;;;5053779;28;20205;-55
2021/06/07 11:47:26;;;;;;;27.77;20.33;;;21.80;99.90;;;;;;5070317;28;20206;-55
2021/06/07 11:50:12;;;;;;;23.38;19.70;;;21.60;99.90;;;;;;5074542;28;20228;-47
2021/06/07 11:52:51;;;;;;;26.17;19.83;;;21.60;99.90;;;;;;5062276;28;21104;-52
2021/06/07 11:55:31;;;;;;;24.70;19.42;;;21.70;99.90;;;;;;5075967;28;20650;-51
2021/06/07 11:58:22;;;;;;;24.63;19.52;;;22.00;99.90;;;;;;5072911;28;20198;-49
2021/06/07 12:00:50;;;;;;;23.75;19.10;;;22.10;99.90;;;;;;5050531;28;20296;-48
2021/06/07 12:03:18;;;;;;;28.80;21.55;;;22.10;99.90;;;;;;5076130;28;20667;-52
2021/06/07 12:05:46;;;;;;;25.27;19.67;;;22.30;99.90;;;;;;5079328;28;20202;-47
2021/06/07 12:08:15;;;;;;;26.83;20.20;;;22.20;99.90;;;;;;5075882;28;20206;-50
2021/06/07 12:10:43;;;;;;;26.52;21.08;;;22.10;99.90;;;;;;5069956;28;20225;-50
2021/06/07 12:13:17;;;;;;;26.70;19.77;;;22.20;99.90;;;;;;5073618;28;20197;-54
2021/06/07 12:15:44;;;;;;;28.30;20.88;;;22.00;99.90;;;;;;5079182;28;20204;-45
2021/06/07 12:18:11;;;;;;;29.85;20.90;;;22.00;99.90;;;;;;5067393;28;20598;-54
2021/06/07 12:20:37;;;;;;;23.67;19.95;;;22.10;99.90;;;;;;5072779;28;20202;-45
2021/06/07 12:23:05;;;;;;;27.88;19.73;;;22.20;99.90;;;;;;5077299;28;20212;-51
2021/06/07 12:25:44;;;;;;;28.23;21.50;;;22.30;99.90;;;;;;5066358;28;20900;-50
2021/06/07 12:28:20;;;;;;;28.90;21.63;;;22.40;99.90;;;;;;5075265;28;20681;-54
2021/06/07 12:30:48;;;;;;;26.08;20.35;;;22.40;99.90;;;;;;5076988;28;20211;-50
2021/06/07 12:33:14;;;;;;;30.95;22.90;;;22.40;99.90;;;;;;5063415;28;20221;-56